Bethany, Oklahoma
Current Conditions -  °F | °C
As of 12:53 AM on Saturday 29 Nov 2014 (Local Time) from KPWA Reporting Station
Clear Clear  
Wind Chill: 59°   Ceiling: Unl
Heat Index: 59°   Visibility: 10mi
Dew Point: 42°   Wind: 18mph
Humidity: 53%   Direction: 200°SSW
Pressure: 29.79"   Gusts: 28mph
Location:  35.51°N, 97.63°W
Report Text: KPWA 290653Z AUTO 20016G24KT 10SM CLR 15/06 A2979 RMK AO2 PK WND 20027/0610 SLP079 T01500056
Loading
Personal Weather Stations






























Interactive Weather Map New forecast layout! Learn more

10-Day Weather Forecast

Advertisements
Track Severe Weather on mobile